sensor_id;sensor_type;location;lat;lon;timestamp;P1;durP1;ratioP1;P2;durP2;ratioP2
65567;SDS011;52211;50.154;8.682;2022-10-16T00:01:54;3.70;;;3.50;;
65567;SDS011;52211;50.154;8.682;2022-10-16T00:04:21;3.60;;;3.40;;
65567;SDS011;52211;50.154;8.682;2022-10-16T00:06:47;3.33;;;3.23;;
65567;SDS011;52211;50.154;8.682;2022-10-16T00:09:19;3.83;;;3.53;;
65567;SDS011;52211;50.154;8.682;2022-10-16T00:11:50;3.37;;;3.17;;
65567;SDS011;52211;50.154;8.682;2022-10-16T00:14:27;3.97;;;3.53;;
65567;SDS011;52211;50.154;8.682;2022-10-16T00:16:56;3.80;;;3.50;;
65567;SDS011;52211;50.154;8.682;2022-10-16T00:19:25;3.60;;;3.40;;
65567;SDS011;52211;50.154;8.682;2022-10-16T00:21:52;3.57;;;3.47;;
65567;SDS011;52211;50.154;8.682;2022-10-16T00:24:21;3.50;;;3.30;;
65567;SDS011;52211;50.154;8.682;2022-10-16T00:26:49;3.40;;;3.30;;
65567;SDS011;52211;50.154;8.682;2022-10-16T00:29:19;3.57;;;3.40;;
65567;SDS011;52211;50.154;8.682;2022-10-16T00:31:51;4.00;;;3.80;;
65567;SDS011;52211;50.154;8.682;2022-10-16T00:34:19;4.07;;;3.87;;
65567;SDS011;52211;50.154;8.682;2022-10-16T00:36:49;3.93;;;3.73;;
65567;SDS011;52211;50.154;8.682;2022-10-16T00:39:15;4.20;;;4.00;;
65567;SDS011;52211;50.154;8.682;2022-10-16T00:41:47;4.67;;;4.30;;
65567;SDS011;52211;50.154;8.682;2022-10-16T00:47:27;4.10;;;3.90;;
65567;SDS011;52211;50.154;8.682;2022-10-16T00:50:09;4.73;;;4.43;;
65567;SDS011;52211;50.154;8.682;2022-10-16T00:52:52;6.50;;;4.00;;
65567;SDS011;52211;50.154;8.682;2022-10-16T00:55:21;4.47;;;4.27;;
65567;SDS011;52211;50.154;8.682;2022-10-16T00:57:51;4.80;;;4.50;;
65567;SDS011;52211;50.154;8.682;2022-10-16T01:00:22;4.40;;;4.17;;
65567;SDS011;52211;50.154;8.682;2022-10-16T01:02:56;4.17;;;3.97;;
65567;SDS011;52211;50.154;8.682;2022-10-16T01:05:30;4.27;;;4.07;;
65567;SDS011;52211;50.154;8.682;2022-10-16T01:08:27;4.20;;;3.90;;
65567;SDS011;52211;50.154;8.682;2022-10-16T01:11:17;4.30;;;4.10;;
65567;SDS011;52211;50.154;8.682;2022-10-16T01:14:22;4.13;;;3.93;;
65567;SDS011;52211;50.154;8.682;2022-10-16T01:17:16;4.00;;;3.80;;
65567;SDS011;52211;50.154;8.682;2022-10-16T01:22:57;4.30;;;3.90;;
65567;SDS011;52211;50.154;8.682;2022-10-16T01:29:18;4.20;;;3.80;;
65567;SDS011;52211;50.154;8.682;2022-10-16T01:31:59;4.00;;;3.80;;
65567;SDS011;52211;50.154;8.682;2022-10-16T01:34:55;4.27;;;3.97;;
65567;SDS011;52211;50.154;8.682;2022-10-16T01:40:15;4.07;;;3.87;;
65567;SDS011;52211;50.154;8.682;2022-10-16T01:42:46;3.80;;;3.60;;
65567;SDS011;52211;50.154;8.682;2022-10-16T01:45:35;3.90;;;3.60;;
65567;SDS011;52211;50.154;8.682;2022-10-16T01:48:05;3.60;;;3.50;;
65567;SDS011;52211;50.154;8.682;2022-10-16T01:50:39;3.60;;;3.40;;
65567;SDS011;52211;50.154;8.682;2022-10-16T01:53:10;3.87;;;3.60;;
65567;SDS011;52211;50.154;8.682;2022-10-16T01:55:45;4.63;;;4.23;;
65567;SDS011;52211;50.154;8.682;2022-10-16T01:58:20;4.10;;;3.70;;
65567;SDS011;52211;50.154;8.682;2022-10-16T02:00:50;4.10;;;3.90;;
65567;SDS011;52211;50.154;8.682;2022-10-16T02:03:21;3.93;;;3.73;;
65567;SDS011;52211;50.154;8.682;2022-10-16T02:05:51;3.30;;;3.20;;
65567;SDS011;52211;50.154;8.682;2022-10-16T02:08:24;3.43;;;3.20;;
65567;SDS011;52211;50.154;8.682;2022-10-16T02:10:59;3.07;;;2.97;;
65567;SDS011;52211;50.154;8.682;2022-10-16T02:16:08;3.23;;;3.13;;
65567;SDS011;52211;50.154;8.682;2022-10-16T02:18:39;3.77;;;3.53;;
65567;SDS011;52211;50.154;8.682;2022-10-16T02:24:03;3.40;;;3.20;;
65567;SDS011;52211;50.154;8.682;2022-10-16T02:26:49;3.23;;;3.13;;
65567;SDS011;52211;50.154;8.682;2022-10-16T02:29:27;3.67;;;3.37;;
65567;SDS011;52211;50.154;8.682;2022-10-16T02:32:04;3.00;;;2.90;;
65567;SDS011;52211;50.154;8.682;2022-10-16T02:34:37;3.00;;;2.90;;
65567;SDS011;52211;50.154;8.682;2022-10-16T02:37:06;3.10;;;3.00;;
65567;SDS011;52211;50.154;8.682;2022-10-16T02:39:34;3.00;;;2.90;;
65567;SDS011;52211;50.154;8.682;2022-10-16T02:42:01;3.10;;;3.00;;
65567;SDS011;52211;50.154;8.682;2022-10-16T02:44:28;3.00;;;2.90;;
65567;SDS011;52211;50.154;8.682;2022-10-16T02:46:55;2.93;;;2.73;;
65567;SDS011;52211;50.154;8.682;2022-10-16T02:49:27;2.80;;;2.70;;
65567;SDS011;52211;50.154;8.682;2022-10-16T02:51:59;2.87;;;2.77;;
65567;SDS011;52211;50.154;8.682;2022-10-16T02:54:28;3.10;;;2.80;;
65567;SDS011;52211;50.154;8.682;2022-10-16T02:56:54;3.07;;;2.73;;
65567;SDS011;52211;50.154;8.682;2022-10-16T02:59:21;2.57;;;2.47;;
65567;SDS011;52211;50.154;8.682;2022-10-16T03:01:50;3.00;;;2.80;;
65567;SDS011;52211;50.154;8.682;2022-10-16T03:04:22;2.83;;;2.73;;
65567;SDS011;52211;50.154;8.682;2022-10-16T03:06:53;2.80;;;2.70;;
65567;SDS011;52211;50.154;8.682;2022-10-16T03:09:22;2.77;;;2.67;;
65567;SDS011;52211;50.154;8.682;2022-10-16T03:11:51;2.70;;;2.60;;
65567;SDS011;52211;50.154;8.682;2022-10-16T03:14:20;2.70;;;2.60;;
65567;SDS011;52211;50.154;8.682;2022-10-16T03:16:52;2.80;;;2.70;;
65567;SDS011;52211;50.154;8.682;2022-10-16T03:19:23;2.90;;;2.70;;
65567;SDS011;52211;50.154;8.682;2022-10-16T03:21:50;2.80;;;2.70;;
65567;SDS011;52211;50.154;8.682;2022-10-16T03:24:24;2.70;;;2.60;;
65567;SDS011;52211;50.154;8.682;2022-10-16T03:26:51;2.60;;;2.50;;
65567;SDS011;52211;50.154;8.682;2022-10-16T03:29:20;2.73;;;2.63;;
65567;SDS011;52211;50.154;8.682;2022-10-16T03:31:49;2.30;;;2.30;;
65567;SDS011;52211;50.154;8.682;2022-10-16T03:34:15;2.80;;;2.70;;
65567;SDS011;52211;50.154;8.682;2022-10-16T03:36:42;2.83;;;2.73;;
65567;SDS011;52211;50.154;8.682;2022-10-16T03:39:09;2.90;;;2.80;;
65567;SDS011;52211;50.154;8.682;2022-10-16T03:41:38;2.60;;;2.50;;
65567;SDS011;52211;50.154;8.682;2022-10-16T03:44:07;2.77;;;2.67;;
65567;SDS011;52211;50.154;8.682;2022-10-16T03:46:38;2.27;;;2.27;;
65567;SDS011;52211;50.154;8.682;2022-10-16T03:49:07;2.80;;;2.70;;
65567;SDS011;52211;50.154;8.682;2022-10-16T03:51:36;2.70;;;2.60;;
65567;SDS011;52211;50.154;8.682;2022-10-16T03:54:05;2.77;;;2.57;;
65567;SDS011;52211;50.154;8.682;2022-10-16T03:56:35;2.70;;;2.60;;
65567;SDS011;52211;50.154;8.682;2022-10-16T03:59:02;2.50;;;2.40;;
65567;SDS011;52211;50.154;8.682;2022-10-16T04:01:29;2.53;;;2.43;;
65567;SDS011;52211;50.154;8.682;2022-10-16T04:04:00;2.30;;;2.20;;
65567;SDS011;52211;50.154;8.682;2022-10-16T04:06:27;2.60;;;2.50;;
65567;SDS011;52211;50.154;8.682;2022-10-16T04:08:58;2.90;;;2.70;;
65567;SDS011;52211;50.154;8.682;2022-10-16T04:11:28;2.37;;;2.30;;
65567;SDS011;52211;50.154;8.682;2022-10-16T04:13:55;2.20;;;2.20;;
65567;SDS011;52211;50.154;8.682;2022-10-16T04:16:22;2.70;;;2.60;;
65567;SDS011;52211;50.154;8.682;2022-10-16T04:18:48;2.63;;;2.53;;
65567;SDS011;52211;50.154;8.682;2022-10-16T04:21:20;2.43;;;2.40;;
65567;SDS011;52211;50.154;8.682;2022-10-16T04:23:46;2.53;;;2.33;;
65567;SDS011;52211;50.154;8.682;2022-10-16T04:26:15;2.23;;;2.23;;
65567;SDS011;52211;50.154;8.682;2022-10-16T04:28:44;2.33;;;2.30;;
65567;SDS011;52211;50.154;8.682;2022-10-16T04:31:14;2.80;;;2.70;;
65567;SDS011;52211;50.154;8.682;2022-10-16T04:33:42;2.70;;;2.60;;
65567;SDS011;52211;50.154;8.682;2022-10-16T04:36:09;2.60;;;2.50;;
65567;SDS011;52211;50.154;8.682;2022-10-16T04:38:36;2.60;;;2.50;;
65567;SDS011;52211;50.154;8.682;2022-10-16T04:41:03;2.40;;;2.40;;
65567;SDS011;52211;50.154;8.682;2022-10-16T04:43:30;2.43;;;2.30;;
65567;SDS011;52211;50.154;8.682;2022-10-16T04:45:57;2.20;;;2.20;;
65567;SDS011;52211;50.154;8.682;2022-10-16T04:48:24;2.60;;;2.50;;
65567;SDS011;52211;50.154;8.682;2022-10-16T04:50:53;2.20;;;2.20;;
65567;SDS011;52211;50.154;8.682;2022-10-16T04:53:22;3.23;;;3.03;;
65567;SDS011;52211;50.154;8.682;2022-10-16T04:55:51;2.37;;;2.30;;
65567;SDS011;52211;50.154;8.682;2022-10-16T04:58:23;2.63;;;2.53;;
65567;SDS011;52211;50.154;8.682;2022-10-16T05:00:52;2.63;;;2.53;;
65567;SDS011;52211;50.154;8.682;2022-10-16T05:03:21;2.60;;;2.50;;
65567;SDS011;52211;50.154;8.682;2022-10-16T05:05:48;2.30;;;2.20;;
65567;SDS011;52211;50.154;8.682;2022-10-16T05:08:17;2.33;;;2.33;;
65567;SDS011;52211;50.154;8.682;2022-10-16T05:10:48;2.80;;;2.70;;
65567;SDS011;52211;50.154;8.682;2022-10-16T05:13:18;3.10;;;3.00;;
65567;SDS011;52211;50.154;8.682;2022-10-16T05:15:48;3.10;;;2.90;;
65567;SDS011;52211;50.154;8.682;2022-10-16T05:18:17;2.60;;;2.50;;
65567;SDS011;52211;50.154;8.682;2022-10-16T05:20:46;3.07;;;2.87;;
65567;SDS011;52211;50.154;8.682;2022-10-16T05:23:13;2.60;;;2.50;;
65567;SDS011;52211;50.154;8.682;2022-10-16T05:25:40;2.60;;;2.50;;
65567;SDS011;52211;50.154;8.682;2022-10-16T05:28:08;2.70;;;2.60;;
65567;SDS011;52211;50.154;8.682;2022-10-16T05:30:36;2.70;;;2.60;;
65567;SDS011;52211;50.154;8.682;2022-10-16T05:33:08;2.80;;;2.70;;
65567;SDS011;52211;50.154;8.682;2022-10-16T05:35:35;3.27;;;3.07;;
65567;SDS011;52211;50.154;8.682;2022-10-16T05:38:04;2.93;;;2.83;;
65567;SDS011;52211;50.154;8.682;2022-10-16T05:40:33;2.87;;;2.70;;
65567;SDS011;52211;50.154;8.682;2022-10-16T05:43:00;2.90;;;2.70;;
65567;SDS011;52211;50.154;8.682;2022-10-16T05:45:29;2.80;;;2.60;;
65567;SDS011;52211;50.154;8.682;2022-10-16T05:47:56;3.00;;;2.90;;
65567;SDS011;52211;50.154;8.682;2022-10-16T05:50:23;3.00;;;2.70;;
65567;SDS011;52211;50.154;8.682;2022-10-16T05:52:51;3.50;;;3.20;;
65567;SDS011;52211;50.154;8.682;2022-10-16T05:55:23;3.20;;;3.10;;
65567;SDS011;52211;50.154;8.682;2022-10-16T05:57:54;3.07;;;2.97;;
65567;SDS011;52211;50.154;8.682;2022-10-16T06:00:21;3.03;;;2.83;;
65567;SDS011;52211;50.154;8.682;2022-10-16T06:02:48;2.73;;;2.63;;
65567;SDS011;52211;50.154;8.682;2022-10-16T06:05:15;3.37;;;3.03;;
65567;SDS011;52211;50.154;8.682;2022-10-16T06:07:42;2.90;;;2.80;;
65567;SDS011;52211;50.154;8.682;2022-10-16T06:10:11;2.70;;;2.60;;
65567;SDS011;52211;50.154;8.682;2022-10-16T06:12:42;2.70;;;2.60;;
65567;SDS011;52211;50.154;8.682;2022-10-16T06:15:09;2.83;;;2.73;;
65567;SDS011;52211;50.154;8.682;2022-10-16T06:17:36;2.90;;;2.80;;
65567;SDS011;52211;50.154;8.682;2022-10-16T06:20:02;3.30;;;3.13;;
65567;SDS011;52211;50.154;8.682;2022-10-16T06:22:30;3.07;;;2.87;;
65567;SDS011;52211;50.154;8.682;2022-10-16T06:24:59;3.00;;;2.90;;
65567;SDS011;52211;50.154;8.682;2022-10-16T06:27:30;3.00;;;2.80;;
65567;SDS011;52211;50.154;8.682;2022-10-16T06:29:59;2.80;;;2.70;;
65567;SDS011;52211;50.154;8.682;2022-10-16T06:32:29;2.87;;;2.77;;
65567;SDS011;52211;50.154;8.682;2022-10-16T06:34:56;3.60;;;3.50;;
65567;SDS011;52211;50.154;8.682;2022-10-16T06:37:23;3.40;;;3.30;;
65567;SDS011;52211;50.154;8.682;2022-10-16T06:39:53;3.50;;;3.30;;
65567;SDS011;52211;50.154;8.682;2022-10-16T06:42:30;4.10;;;3.40;;
65567;SDS011;52211;50.154;8.682;2022-10-16T06:44:59;3.90;;;3.50;;
65567;SDS011;52211;50.154;8.682;2022-10-16T06:47:27;4.60;;;4.30;;
65567;SDS011;52211;50.154;8.682;2022-10-16T06:49:54;5.50;;;5.00;;
65567;SDS011;52211;50.154;8.682;2022-10-16T06:52:21;6.87;;;5.90;;
65567;SDS011;52211;50.154;8.682;2022-10-16T06:54:49;8.03;;;7.23;;
65567;SDS011;52211;50.154;8.682;2022-10-16T06:57:16;9.57;;;7.63;;
65567;SDS011;52211;50.154;8.682;2022-10-16T06:59:45;18.23;;;11.80;;
65567;SDS011;52211;50.154;8.682;2022-10-16T07:02:13;20.83;;;14.07;;
65567;SDS011;52211;50.154;8.682;2022-10-16T07:04:43;26.67;;;17.13;;
65567;SDS011;52211;50.154;8.682;2022-10-16T07:07:11;29.97;;;17.87;;
65567;SDS011;52211;50.154;8.682;2022-10-16T07:09:48;15.93;;;11.53;;
65567;SDS011;52211;50.154;8.682;2022-10-16T07:12:15;12.00;;;8.50;;
65567;SDS011;52211;50.154;8.682;2022-10-16T07:14:44;12.53;;;8.90;;
65567;SDS011;52211;50.154;8.682;2022-10-16T07:17:13;9.00;;;7.33;;
65567;SDS011;52211;50.154;8.682;2022-10-16T07:19:40;6.40;;;5.50;;
65567;SDS011;52211;50.154;8.682;2022-10-16T07:22:09;5.73;;;4.87;;
65567;SDS011;52211;50.154;8.682;2022-10-16T07:24:36;5.27;;;4.87;;
65567;SDS011;52211;50.154;8.682;2022-10-16T07:27:05;5.30;;;4.90;;
65567;SDS011;52211;50.154;8.682;2022-10-16T07:29:34;5.23;;;4.80;;
65567;SDS011;52211;50.154;8.682;2022-10-16T07:32:03;5.40;;;4.90;;
65567;SDS011;52211;50.154;8.682;2022-10-16T07:34:30;4.60;;;4.17;;
65567;SDS011;52211;50.154;8.682;2022-10-16T07:37:05;4.53;;;4.07;;
65567;SDS011;52211;50.154;8.682;2022-10-16T07:39:34;4.83;;;4.43;;
65567;SDS011;52211;50.154;8.682;2022-10-16T07:42:03;4.67;;;4.37;;
65567;SDS011;52211;50.154;8.682;2022-10-16T07:44:30;4.23;;;4.03;;
65567;SDS011;52211;50.154;8.682;2022-10-16T07:47:02;4.00;;;3.80;;
65567;SDS011;52211;50.154;8.682;2022-10-16T07:49:28;4.80;;;4.50;;
65567;SDS011;52211;50.154;8.682;2022-10-16T07:51:55;4.20;;;3.83;;
65567;SDS011;52211;50.154;8.682;2022-10-16T07:54:25;4.37;;;4.07;;
65567;SDS011;52211;50.154;8.682;2022-10-16T07:56:54;3.50;;;3.30;;
65567;SDS011;52211;50.154;8.682;2022-10-16T07:59:21;5.57;;;4.70;;
65567;SDS011;52211;50.154;8.682;2022-10-16T08:01:51;5.37;;;4.90;;
65567;SDS011;52211;50.154;8.682;2022-10-16T08:04:18;5.27;;;4.77;;
65567;SDS011;52211;50.154;8.682;2022-10-16T08:06:44;17.30;;;11.00;;
65567;SDS011;52211;50.154;8.682;2022-10-16T08:09:11;11.93;;;8.40;;
65567;SDS011;52211;50.154;8.682;2022-10-16T08:11:40;8.17;;;6.87;;
65567;SDS011;52211;50.154;8.682;2022-10-16T08:14:12;8.23;;;7.23;;
65567;SDS011;52211;50.154;8.682;2022-10-16T08:16:38;5.27;;;4.77;;
65567;SDS011;52211;50.154;8.682;2022-10-16T08:19:08;5.10;;;4.70;;
65567;SDS011;52211;50.154;8.682;2022-10-16T08:21:34;4.00;;;3.70;;
65567;SDS011;52211;50.154;8.682;2022-10-16T08:24:03;4.17;;;3.80;;
65567;SDS011;52211;50.154;8.682;2022-10-16T08:26:33;3.73;;;3.43;;
65567;SDS011;52211;50.154;8.682;2022-10-16T08:29:04;3.57;;;3.37;;
65567;SDS011;52211;50.154;8.682;2022-10-16T08:31:31;3.70;;;3.50;;
65567;SDS011;52211;50.154;8.682;2022-10-16T08:34:03;3.87;;;3.67;;
65567;SDS011;52211;50.154;8.682;2022-10-16T08:36:32;3.47;;;3.27;;
65567;SDS011;52211;50.154;8.682;2022-10-16T08:39:01;3.53;;;3.33;;
65567;SDS011;52211;50.154;8.682;2022-10-16T08:41:32;3.50;;;3.30;;
65567;SDS011;52211;50.154;8.682;2022-10-16T08:47:38;3.50;;;3.30;;
65567;SDS011;52211;50.154;8.682;2022-10-16T08:50:32;3.70;;;3.40;;
65567;SDS011;52211;50.154;8.682;2022-10-16T08:53:06;3.67;;;3.40;;
65567;SDS011;52211;50.154;8.682;2022-10-16T08:55:42;3.63;;;3.43;;
65567;SDS011;52211;50.154;8.682;2022-10-16T08:58:13;3.33;;;3.13;;
65567;SDS011;52211;50.154;8.682;2022-10-16T09:00:53;3.33;;;3.23;;
65567;SDS011;52211;50.154;8.682;2022-10-16T09:09:22;3.60;;;3.33;;
65567;SDS011;52211;50.154;8.682;2022-10-16T09:12:23;4.20;;;3.80;;
65567;SDS011;52211;50.154;8.682;2022-10-16T09:15:03;3.83;;;3.63;;
65567;SDS011;52211;50.154;8.682;2022-10-16T09:20:40;3.50;;;3.30;;
65567;SDS011;52211;50.154;8.682;2022-10-16T09:23:39;3.80;;;3.60;;
65567;SDS011;52211;50.154;8.682;2022-10-16T09:26:10;3.43;;;3.30;;
65567;SDS011;52211;50.154;8.682;2022-10-16T09:28:40;4.67;;;3.73;;
65567;SDS011;52211;50.154;8.682;2022-10-16T09:31:19;4.43;;;4.20;;
65567;SDS011;52211;50.154;8.682;2022-10-16T09:33:51;4.97;;;4.57;;
65567;SDS011;52211;50.154;8.682;2022-10-16T09:36:23;4.30;;;4.03;;
65567;SDS011;52211;50.154;8.682;2022-10-16T09:39:09;5.07;;;4.77;;
65567;SDS011;52211;50.154;8.682;2022-10-16T09:41:41;4.53;;;4.27;;
65567;SDS011;52211;50.154;8.682;2022-10-16T09:44:24;5.13;;;3.90;;
65567;SDS011;52211;50.154;8.682;2022-10-16T09:47:01;3.90;;;3.70;;
65567;SDS011;52211;50.154;8.682;2022-10-16T09:49:28;4.00;;;3.70;;
65567;SDS011;52211;50.154;8.682;2022-10-16T09:54:55;3.60;;;3.40;;
65567;SDS011;52211;50.154;8.682;2022-10-16T09:57:25;3.60;;;3.40;;
65567;SDS011;52211;50.154;8.682;2022-10-16T09:59:58;3.70;;;3.50;;
65567;SDS011;52211;50.154;8.682;2022-10-16T10:02:35;3.60;;;3.20;;
65567;SDS011;52211;50.154;8.682;2022-10-16T10:05:17;3.27;;;3.17;;
65567;SDS011;52211;50.154;8.682;2022-10-16T10:10:32;4.60;;;3.47;;
65567;SDS011;52211;50.154;8.682;2022-10-16T10:13:24;3.80;;;3.37;;
65567;SDS011;52211;50.154;8.682;2022-10-16T10:15:56;3.47;;;3.20;;
65567;SDS011;52211;50.154;8.682;2022-10-16T10:18:23;3.87;;;3.57;;
65567;SDS011;52211;50.154;8.682;2022-10-16T10:20:59;3.53;;;3.33;;
65567;SDS011;52211;50.154;8.682;2022-10-16T10:23:28;3.37;;;3.17;;
65567;SDS011;52211;50.154;8.682;2022-10-16T10:26:09;3.03;;;2.93;;
65567;SDS011;52211;50.154;8.682;2022-10-16T10:34:46;4.03;;;3.07;;
65567;SDS011;52211;50.154;8.682;2022-10-16T10:41:16;3.30;;;3.10;;
65567;SDS011;52211;50.154;8.682;2022-10-16T10:50:11;3.17;;;3.07;;
65567;SDS011;52211;50.154;8.682;2022-10-16T10:52:58;3.33;;;3.13;;
65567;SDS011;52211;50.154;8.682;2022-10-16T10:59:14;4.50;;;4.30;;
65567;SDS011;52211;50.154;8.682;2022-10-16T11:08:19;4.80;;;4.50;;
65567;SDS011;52211;50.154;8.682;2022-10-16T11:10:57;5.00;;;4.40;;
65567;SDS011;52211;50.154;8.682;2022-10-16T11:13:53;5.43;;;5.03;;
65567;SDS011;52211;50.154;8.682;2022-10-16T11:16:39;5.70;;;5.20;;
65567;SDS011;52211;50.154;8.682;2022-10-16T11:25:21;5.20;;;4.80;;
65567;SDS011;52211;50.154;8.682;2022-10-16T11:37:14;4.13;;;3.90;;
65567;SDS011;52211;50.154;8.682;2022-10-16T11:39:48;4.43;;;4.13;;
65567;SDS011;52211;50.154;8.682;2022-10-16T11:42:21;4.30;;;4.00;;
65567;SDS011;52211;50.154;8.682;2022-10-16T11:45:23;5.07;;;4.57;;
65567;SDS011;52211;50.154;8.682;2022-10-16T11:50:50;4.97;;;4.67;;
65567;SDS011;52211;50.154;8.682;2022-10-16T11:56:21;4.37;;;4.07;;
65567;SDS011;52211;50.154;8.682;2022-10-16T12:01:38;5.00;;;4.67;;
65567;SDS011;52211;50.154;8.682;2022-10-16T12:07:14;5.07;;;4.73;;
65567;SDS011;52211;50.154;8.682;2022-10-16T12:09:49;4.90;;;4.50;;
65567;SDS011;52211;50.154;8.682;2022-10-16T12:18:00;4.33;;;3.93;;
65567;SDS011;52211;50.154;8.682;2022-10-16T12:20:34;3.17;;;2.97;;
65567;SDS011;52211;50.154;8.682;2022-10-16T12:23:04;3.20;;;2.93;;
65567;SDS011;52211;50.154;8.682;2022-10-16T12:25:53;3.17;;;2.97;;
65567;SDS011;52211;50.154;8.682;2022-10-16T12:28:27;4.07;;;3.70;;
65567;SDS011;52211;50.154;8.682;2022-10-16T12:31:03;2.67;;;2.50;;
65567;SDS011;52211;50.154;8.682;2022-10-16T12:33:42;2.50;;;2.40;;
65567;SDS011;52211;50.154;8.682;2022-10-16T12:36:29;2.50;;;2.40;;
65567;SDS011;52211;50.154;8.682;2022-10-16T12:39:02;2.80;;;2.70;;
65567;SDS011;52211;50.154;8.682;2022-10-16T12:41:30;2.80;;;2.60;;
65567;SDS011;52211;50.154;8.682;2022-10-16T12:44:01;2.47;;;2.37;;
65567;SDS011;52211;50.154;8.682;2022-10-16T12:51:41;4.07;;;3.70;;
65567;SDS011;52211;50.154;8.682;2022-10-16T12:54:18;3.10;;;2.90;;
65567;SDS011;52211;50.154;8.682;2022-10-16T13:00:17;2.70;;;2.60;;
65567;SDS011;52211;50.154;8.682;2022-10-16T13:12:09;2.50;;;2.40;;
65567;SDS011;52211;50.154;8.682;2022-10-16T13:15:07;2.40;;;2.30;;
65567;SDS011;52211;50.154;8.682;2022-10-16T13:17:59;2.80;;;2.40;;
65567;SDS011;52211;50.154;8.682;2022-10-16T13:23:53;3.30;;;3.10;;
65567;SDS011;52211;50.154;8.682;2022-10-16T13:27:02;2.93;;;2.77;;
65567;SDS011;52211;50.154;8.682;2022-10-16T13:29:41;2.77;;;2.67;;
65567;SDS011;52211;50.154;8.682;2022-10-16T13:32:09;2.70;;;2.60;;
65567;SDS011;52211;50.154;8.682;2022-10-16T13:34:45;2.90;;;2.70;;
65567;SDS011;52211;50.154;8.682;2022-10-16T13:37:18;2.60;;;2.50;;
65567;SDS011;52211;50.154;8.682;2022-10-16T13:39:48;2.83;;;2.70;;
65567;SDS011;52211;50.154;8.682;2022-10-16T13:42:33;2.60;;;2.50;;
65567;SDS011;52211;50.154;8.682;2022-10-16T13:45:03;2.33;;;2.23;;
65567;SDS011;52211;50.154;8.682;2022-10-16T13:47:30;2.50;;;2.40;;
65567;SDS011;52211;50.154;8.682;2022-10-16T13:52:28;2.50;;;2.40;;
65567;SDS011;52211;50.154;8.682;2022-10-16T13:54:58;2.93;;;2.80;;
65567;SDS011;52211;50.154;8.682;2022-10-16T13:57:29;3.30;;;3.10;;
65567;SDS011;52211;50.154;8.682;2022-10-16T13:59:58;3.03;;;2.83;;
65567;SDS011;52211;50.154;8.682;2022-10-16T14:02:34;2.40;;;2.30;;
65567;SDS011;52211;50.154;8.682;2022-10-16T14:05:08;2.90;;;2.80;;
65567;SDS011;52211;50.154;8.682;2022-10-16T14:07:42;3.17;;;3.03;;
65567;SDS011;52211;50.154;8.682;2022-10-16T14:10:25;2.70;;;2.60;;
65567;SDS011;52211;50.154;8.682;2022-10-16T14:15:34;3.17;;;2.97;;
65567;SDS011;52211;50.154;8.682;2022-10-16T14:18:03;3.10;;;2.53;;
65567;SDS011;52211;50.154;8.682;2022-10-16T14:20:33;2.97;;;2.87;;
65567;SDS011;52211;50.154;8.682;2022-10-16T14:28:39;2.73;;;2.43;;
65567;SDS011;52211;50.154;8.682;2022-10-16T14:31:23;2.90;;;2.70;;
65567;SDS011;52211;50.154;8.682;2022-10-16T14:33:54;2.63;;;2.53;;
65567;SDS011;52211;50.154;8.682;2022-10-16T14:36:28;3.00;;;2.80;;
65567;SDS011;52211;50.154;8.682;2022-10-16T14:41:32;2.50;;;2.40;;
65567;SDS011;52211;50.154;8.682;2022-10-16T14:44:11;2.60;;;2.50;;
65567;SDS011;52211;50.154;8.682;2022-10-16T14:46:40;2.73;;;2.63;;
65567;SDS011;52211;50.154;8.682;2022-10-16T14:51:39;2.73;;;2.60;;
65567;SDS011;52211;50.154;8.682;2022-10-16T14:54:11;3.17;;;2.97;;
65567;SDS011;52211;50.154;8.682;2022-10-16T14:56:56;3.07;;;2.90;;
65567;SDS011;52211;50.154;8.682;2022-10-16T14:59:30;2.93;;;2.83;;
65567;SDS011;52211;50.154;8.682;2022-10-16T15:02:16;2.90;;;2.80;;
65567;SDS011;52211;50.154;8.682;2022-10-16T15:04:55;2.90;;;2.80;;
65567;SDS011;52211;50.154;8.682;2022-10-16T15:07:26;3.30;;;3.20;;
65567;SDS011;52211;50.154;8.682;2022-10-16T15:09:56;2.90;;;2.70;;
65567;SDS011;52211;50.154;8.682;2022-10-16T15:12:27;3.37;;;3.17;;
65567;SDS011;52211;50.154;8.682;2022-10-16T15:14:57;3.23;;;3.10;;
65567;SDS011;52211;50.154;8.682;2022-10-16T15:17:28;2.97;;;2.87;;
65567;SDS011;52211;50.154;8.682;2022-10-16T15:19:57;3.07;;;2.97;;
65567;SDS011;52211;50.154;8.682;2022-10-16T15:22:29;3.27;;;2.97;;
65567;SDS011;52211;50.154;8.682;2022-10-16T15:24:58;2.80;;;2.70;;
65567;SDS011;52211;50.154;8.682;2022-10-16T15:27:25;3.60;;;3.40;;
65567;SDS011;52211;50.154;8.682;2022-10-16T15:29:54;3.10;;;3.00;;
65567;SDS011;52211;50.154;8.682;2022-10-16T15:32:21;2.80;;;2.70;;
65567;SDS011;52211;50.154;8.682;2022-10-16T15:34:57;2.90;;;2.70;;
65567;SDS011;52211;50.154;8.682;2022-10-16T15:37:26;3.00;;;2.80;;
65567;SDS011;52211;50.154;8.682;2022-10-16T15:39:53;2.93;;;2.83;;
65567;SDS011;52211;50.154;8.682;2022-10-16T15:42:20;3.50;;;3.20;;
65567;SDS011;52211;50.154;8.682;2022-10-16T15:44:47;2.80;;;2.70;;
65567;SDS011;52211;50.154;8.682;2022-10-16T15:47:16;3.03;;;2.90;;
65567;SDS011;52211;50.154;8.682;2022-10-16T15:49:43;2.83;;;2.73;;
65567;SDS011;52211;50.154;8.682;2022-10-16T15:52:11;3.30;;;2.80;;
65567;SDS011;52211;50.154;8.682;2022-10-16T15:54:43;3.07;;;2.97;;
65567;SDS011;52211;50.154;8.682;2022-10-16T15:57:09;3.63;;;3.43;;
65567;SDS011;52211;50.154;8.682;2022-10-16T15:59:41;3.37;;;3.07;;
65567;SDS011;52211;50.154;8.682;2022-10-16T16:02:08;3.40;;;3.10;;
65567;SDS011;52211;50.154;8.682;2022-10-16T16:04:38;4.10;;;3.80;;
65567;SDS011;52211;50.154;8.682;2022-10-16T16:07:10;3.90;;;3.50;;
65567;SDS011;52211;50.154;8.682;2022-10-16T16:09:36;4.13;;;3.83;;
65567;SDS011;52211;50.154;8.682;2022-10-16T16:12:10;4.23;;;3.70;;
65567;SDS011;52211;50.154;8.682;2022-10-16T16:14:39;4.47;;;4.17;;
65567;SDS011;52211;50.154;8.682;2022-10-16T16:17:06;4.97;;;4.50;;
65567;SDS011;52211;50.154;8.682;2022-10-16T16:19:35;8.00;;;6.60;;
65567;SDS011;52211;50.154;8.682;2022-10-16T16:22:06;6.87;;;6.17;;
65567;SDS011;52211;50.154;8.682;2022-10-16T16:24:40;5.57;;;5.07;;
65567;SDS011;52211;50.154;8.682;2022-10-16T16:27:12;5.60;;;5.10;;
65567;SDS011;52211;50.154;8.682;2022-10-16T16:29:42;5.07;;;4.67;;
65567;SDS011;52211;50.154;8.682;2022-10-16T16:32:12;4.70;;;4.40;;
65567;SDS011;52211;50.154;8.682;2022-10-16T16:34:42;4.50;;;4.20;;
65567;SDS011;52211;50.154;8.682;2022-10-16T16:37:08;5.60;;;5.10;;
65567;SDS011;52211;50.154;8.682;2022-10-16T16:39:35;5.93;;;5.43;;
65567;SDS011;52211;50.154;8.682;2022-10-16T16:42:04;4.87;;;4.47;;
65567;SDS011;52211;50.154;8.682;2022-10-16T16:44:33;4.80;;;4.47;;
65567;SDS011;52211;50.154;8.682;2022-10-16T16:47:05;6.30;;;5.70;;
65567;SDS011;52211;50.154;8.682;2022-10-16T16:49:32;24.63;;;15.90;;
65567;SDS011;52211;50.154;8.682;2022-10-16T16:52:01;22.70;;;15.90;;
65567;SDS011;52211;50.154;8.682;2022-10-16T16:54:28;19.17;;;13.03;;
65567;SDS011;52211;50.154;8.682;2022-10-16T16:56:57;14.40;;;11.07;;
65567;SDS011;52211;50.154;8.682;2022-10-16T16:59:24;10.57;;;8.13;;
65567;SDS011;52211;50.154;8.682;2022-10-16T17:01:58;8.00;;;7.20;;
65567;SDS011;52211;50.154;8.682;2022-10-16T17:04:30;7.37;;;6.60;;
65567;SDS011;52211;50.154;8.682;2022-10-16T17:07:00;6.03;;;5.53;;
65567;SDS011;52211;50.154;8.682;2022-10-16T17:09:31;6.50;;;5.40;;
65567;SDS011;52211;50.154;8.682;2022-10-16T17:11:59;5.63;;;5.10;;
65567;SDS011;52211;50.154;8.682;2022-10-16T17:14:29;5.00;;;4.50;;
65567;SDS011;52211;50.154;8.682;2022-10-16T17:16:56;5.00;;;4.60;;
65567;SDS011;52211;50.154;8.682;2022-10-16T17:19:25;5.27;;;4.87;;
65567;SDS011;52211;50.154;8.682;2022-10-16T17:21:54;5.37;;;4.97;;
65567;SDS011;52211;50.154;8.682;2022-10-16T17:24:25;5.30;;;4.90;;
65567;SDS011;52211;50.154;8.682;2022-10-16T17:26:52;5.57;;;4.97;;
65567;SDS011;52211;50.154;8.682;2022-10-16T17:29:19;5.90;;;5.40;;